Pagrindinis puslapis
METAR-TAF:

METAR-TAF

Oro uostai :

Apalachicola, Florida, Jungtinės Amerikos Valstijos

platuma: 29-43-37N, ilguma: 085-01-29W, Aukštis: 6 m

Dabartinis oras

Ataskaita buvo paskelbta 7 minutes, ne 22:53 UTC
Vėjas 9 kt iš Vakarų
Temperatūra 29°C
Drėgmė 66%
Slėgis 1015 hPa
Matomumas: 16.1 km
Giedras dangus

METAR: KAAF 302253Z AUTO 26009KT 10SM CLR 29/22 A2996 RMK AO2 SLP146 T02890217 $

Laikas: 19:00 (23:00 UTC)


TAF: trūkstamas

Orai ataskaitas ir orų prognozės (METAR, TAF).

turimą stotys yra geltonos ir raudonos taškus žemėlapyje.

Perkelti pele per norėdami pamatyti stoties vardą.

Tada spustelėkite, norėdami matyti oro stebėjimo ir prognozės.

Norėdami pakeisti žemėlapį: spustelėkite ant žalios mygtukų su juodo kryžiaus žemyn,; žalią mygtuką su brūkšneliu, jei norite nutolinti; arba žalių rodyklių gretimoms žemėlapius.


METAR-TAF: